createdAt,value
2023-02-01T00:01:20.466Z,1.40
2023-02-01T00:03:47.048Z,1.40
2023-02-01T00:06:13.618Z,1.85
2023-02-01T00:08:43.267Z,1.30
2023-02-01T00:11:11.903Z,0.98
2023-02-01T00:13:41.623Z,1.20
2023-02-01T00:16:09.721Z,1.33
2023-02-01T00:18:37.023Z,1.27
2023-02-01T00:21:03.747Z,1.60
2023-02-01T00:23:35.158Z,1.15
2023-02-01T00:26:06.549Z,1.83
2023-02-01T00:28:33.547Z,1.67
2023-02-01T00:31:04.976Z,1.60
2023-02-01T00:33:32.875Z,1.45
2023-02-01T00:36:03.996Z,1.58
2023-02-01T00:38:31.969Z,1.52
2023-02-01T00:41:06.065Z,1.45
2023-02-01T00:43:33.560Z,1.70
2023-02-01T00:46:00.581Z,1.10
2023-02-01T00:48:27.729Z,1.02
2023-02-01T00:50:54.524Z,1.42
2023-02-01T00:53:21.386Z,1.48
2023-02-01T00:55:49.077Z,1.80
2023-02-01T00:58:15.919Z,1.65
2023-02-01T01:00:42.654Z,1.50
2023-02-01T01:03:21.290Z,1.75
2023-02-01T01:05:49.779Z,1.60
2023-02-01T01:08:17.417Z,1.50
2023-02-01T01:10:44.349Z,1.73
2023-02-01T01:13:12.013Z,2.00
2023-02-01T01:15:40.900Z,1.98
2023-02-01T01:18:08.544Z,2.38
2023-02-01T01:20:36.745Z,2.55
2023-02-01T01:23:03.902Z,2.63
2023-02-01T01:25:30.985Z,2.20
2023-02-01T01:27:57.536Z,2.05
2023-02-01T01:30:24.555Z,1.73
2023-02-01T01:32:53.062Z,2.25
2023-02-01T01:35:19.673Z,2.22
2023-02-01T01:37:46.241Z,2.47
2023-02-01T01:40:13.165Z,2.13
2023-02-01T01:42:41.434Z,2.88
2023-02-01T01:45:29.788Z,2.13
2023-02-01T01:48:00.510Z,2.03
2023-02-01T01:50:49.260Z,2.60
2023-02-01T01:53:21.654Z,3.55
2023-02-01T01:55:51.109Z,2.45
2023-02-01T01:58:24.907Z,2.08
2023-02-01T02:00:52.034Z,2.28
2023-02-01T02:03:22.461Z,2.75
2023-02-01T02:05:51.011Z,2.20
2023-02-01T02:08:21.231Z,2.92
2023-02-01T02:11:01.917Z,2.53
2023-02-01T02:13:42.266Z,3.35
2023-02-01T02:16:27.951Z,2.28
2023-02-01T02:19:32.206Z,2.67
2023-02-01T02:22:26.764Z,2.80
2023-02-01T02:24:59.437Z,2.40
2023-02-01T02:27:29.348Z,2.42
2023-02-01T02:30:19.023Z,2.35
2023-02-01T02:33:33.964Z,2.20
2023-02-01T02:36:02.214Z,2.10
2023-02-01T02:38:48.062Z,1.85
2023-02-01T02:41:50.143Z,1.90
2023-02-01T02:44:47.476Z,2.17
2023-02-01T02:47:30.188Z,1.98
2023-02-01T02:50:25.186Z,2.20
2023-02-01T02:53:22.154Z,2.00
2023-02-01T02:55:51.591Z,1.92
2023-02-01T02:58:39.251Z,2.05
2023-02-01T03:01:24.529Z,2.50
2023-02-01T03:04:18.348Z,1.95
2023-02-01T03:06:47.435Z,2.13
2023-02-01T03:09:22.464Z,2.13
2023-02-01T03:12:12.691Z,2.33
2023-02-01T03:14:45.155Z,1.80
2023-02-01T03:17:18.322Z,1.90
2023-02-01T03:22:32.462Z,2.05
2023-02-01T03:25:10.147Z,2.05
2023-02-01T03:27:55.290Z,1.70
2023-02-01T03:30:25.069Z,2.20
2023-02-01T03:33:01.265Z,1.90
2023-02-01T03:35:34.610Z,2.03
2023-02-01T03:38:12.758Z,1.83
2023-02-01T03:40:42.887Z,1.73
2023-02-01T03:43:15.405Z,2.03
2023-02-01T03:45:46.864Z,2.10
2023-02-01T03:48:15.825Z,2.13
2023-02-01T03:50:50.299Z,2.00
2023-02-01T03:53:21.396Z,1.65
2023-02-01T03:55:48.471Z,2.13
2023-02-01T03:58:20.907Z,1.90
2023-02-01T04:00:59.860Z,2.03
2023-02-01T04:03:29.033Z,1.98
2023-02-01T04:05:57.007Z,1.98
2023-02-01T04:08:27.176Z,1.58
2023-02-01T04:10:53.714Z,2.28
2023-02-01T04:13:20.263Z,1.98
2023-02-01T04:15:50.665Z,1.85
2023-02-01T04:18:17.468Z,2.00
2023-02-01T04:20:45.009Z,1.85
2023-02-01T04:23:11.560Z,1.88
2023-02-01T04:25:38.085Z,2.17
2023-02-01T04:28:05.753Z,2.05
2023-02-01T04:30:32.374Z,2.35
2023-02-01T04:33:04.522Z,1.70
2023-02-01T04:35:31.081Z,1.85
2023-02-01T04:37:57.862Z,1.90
2023-02-01T04:40:24.757Z,2.60
2023-02-01T04:42:51.492Z,2.50
2023-02-01T04:45:18.169Z,2.00
2023-02-01T04:47:44.751Z,2.17
2023-02-01T04:50:11.667Z,1.70
2023-02-01T04:52:38.314Z,2.35
2023-02-01T04:55:05.399Z,2.25
2023-02-01T04:57:32.011Z,2.67
2023-02-01T04:59:58.582Z,2.22
2023-02-01T05:02:25.346Z,2.10
2023-02-01T05:04:56.809Z,2.53
2023-02-01T05:07:23.516Z,2.20
2023-02-01T05:09:50.136Z,2.25
2023-02-01T05:12:35.358Z,1.92
2023-02-01T05:15:01.983Z,2.08
2023-02-01T05:17:28.681Z,1.98
2023-02-01T05:19:55.284Z,1.98
2023-02-01T05:22:21.951Z,2.55
2023-02-01T05:24:48.525Z,2.45
2023-02-01T05:27:15.066Z,2.38
2023-02-01T05:29:41.611Z,1.85
2023-02-01T05:32:21.766Z,2.35
2023-02-01T05:34:48.977Z,2.28
2023-02-01T05:37:15.518Z,2.05
2023-02-01T05:39:42.079Z,2.35
2023-02-01T05:42:08.663Z,2.42
2023-02-01T05:44:35.212Z,2.00
2023-02-01T05:47:01.881Z,2.20
2023-02-01T05:49:28.512Z,2.97
2023-02-01T05:51:55.100Z,1.90
2023-02-01T05:54:21.634Z,2.30
2023-02-01T05:56:48.172Z,2.30
2023-02-01T05:59:14.720Z,1.83
2023-02-01T06:01:41.281Z,2.00
2023-02-01T06:04:08.330Z,1.95
2023-02-01T06:06:35.150Z,2.30
2023-02-01T06:09:03.157Z,2.63
2023-02-01T06:11:32.760Z,2.28
2023-02-01T06:13:59.989Z,2.13
2023-02-01T06:16:27.143Z,2.45
2023-02-01T06:18:54.896Z,2.22
2023-02-01T06:21:25.109Z,1.98
2023-02-01T06:23:52.896Z,1.77
2023-02-01T06:26:20.014Z,2.05
2023-02-01T06:28:46.845Z,2.38
2023-02-01T06:31:13.662Z,2.35
2023-02-01T06:33:40.697Z,2.42
2023-02-01T06:36:09.149Z,1.92
2023-02-01T06:38:36.445Z,2.20
2023-02-01T06:41:04.547Z,2.15
2023-02-01T06:43:31.766Z,2.28
2023-02-01T06:46:03.128Z,1.90
2023-02-01T06:48:29.959Z,2.17
2023-02-01T06:50:56.580Z,1.73
2023-02-01T06:53:23.371Z,2.15
2023-02-01T06:55:58.044Z,1.85
2023-02-01T06:58:25.130Z,2.50
2023-02-01T07:00:51.814Z,1.30
2023-02-01T07:03:18.534Z,2.00
2023-02-01T07:05:45.079Z,1.65
2023-02-01T07:08:11.626Z,1.50
2023-02-01T07:10:38.942Z,1.67
2023-02-01T07:13:06.195Z,1.40
2023-02-01T07:15:32.994Z,1.92
2023-02-01T07:17:59.629Z,1.50
2023-02-01T07:20:26.226Z,1.95
2023-02-01T07:22:57.547Z,1.60
2023-02-01T07:25:24.875Z,1.75
2023-02-01T07:27:51.437Z,1.30
2023-02-01T07:30:18.533Z,1.33
2023-02-01T07:32:45.181Z,1.45
2023-02-01T07:35:11.893Z,1.42
2023-02-01T07:37:38.504Z,1.15
2023-02-01T07:40:05.648Z,1.20
2023-02-01T07:42:32.262Z,1.20
2023-02-01T07:45:07.826Z,1.77
2023-02-01T07:47:41.463Z,1.33
2023-02-01T07:50:08.790Z,1.17
2023-02-01T07:52:35.319Z,2.28
2023-02-01T07:55:01.901Z,1.15
2023-02-01T07:57:28.507Z,1.27
2023-02-01T08:00:13.911Z,1.08
2023-02-01T08:02:41.599Z,1.10
2023-02-01T08:05:10.840Z,1.05
2023-02-01T08:07:37.380Z,1.50
2023-02-01T08:10:06.567Z,1.23
2023-02-01T08:12:33.693Z,1.27
2023-02-01T08:15:00.270Z,1.25
2023-02-01T08:17:28.706Z,1.15
2023-02-01T08:19:55.296Z,1.60
2023-02-01T08:22:21.934Z,1.63
2023-02-01T08:24:49.376Z,1.55
2023-02-01T08:27:16.018Z,1.10
2023-02-01T08:29:42.694Z,0.93
2023-02-01T08:32:09.418Z,0.93
2023-02-01T08:34:36.103Z,0.90
2023-02-01T08:37:02.917Z,1.23
2023-02-01T08:39:29.483Z,1.60
2023-02-01T08:42:14.342Z,1.20
2023-02-01T08:44:40.942Z,1.30
2023-02-01T08:47:07.527Z,1.45
2023-02-01T08:49:34.189Z,1.20
2023-02-01T08:52:03.965Z,1.13
2023-02-01T08:54:33.710Z,1.13
2023-02-01T08:57:00.304Z,1.00
2023-02-01T08:59:28.076Z,1.45
2023-02-01T09:01:57.122Z,1.25
2023-02-01T09:04:26.384Z,1.25
2023-02-01T09:06:53.311Z,1.10
2023-02-01T09:09:19.855Z,1.30
2023-02-01T09:11:46.413Z,1.00
2023-02-01T09:14:13.032Z,1.25
2023-02-01T09:16:39.858Z,1.48
2023-02-01T09:19:24.869Z,1.45
2023-02-01T09:21:52.721Z,1.00
2023-02-01T09:24:19.361Z,0.95
2023-02-01T09:26:46.394Z,1.25
2023-02-01T09:29:13.202Z,1.08
2023-02-01T09:31:44.229Z,1.35
2023-02-01T09:34:13.383Z,0.80
2023-02-01T09:36:39.965Z,1.20
2023-02-01T09:39:06.600Z,1.90
2023-02-01T09:41:42.287Z,1.17
2023-02-01T09:44:17.831Z,1.20
2023-02-01T09:46:44.636Z,1.60
2023-02-01T09:49:16.163Z,1.48
2023-02-01T09:51:47.638Z,1.02
2023-02-01T09:54:18.345Z,1.48
2023-02-01T09:56:53.415Z,1.40
2023-02-01T09:59:29.143Z,1.40
2023-02-01T10:01:56.803Z,1.17
2023-02-01T10:04:23.912Z,1.40
2023-02-01T10:06:50.468Z,1.10
2023-02-01T10:09:44.267Z,1.23
2023-02-01T10:12:32.558Z,1.10
2023-02-01T10:15:17.775Z,1.15
2023-02-01T10:18:12.895Z,1.75
2023-02-01T10:20:51.561Z,1.55
2023-02-01T10:23:44.028Z,0.85
2023-02-01T10:26:19.166Z,1.30
2023-02-01T10:28:52.849Z,1.55
2023-02-01T10:31:21.991Z,1.38
2023-02-01T10:33:53.692Z,1.35
2023-02-01T10:36:30.366Z,1.20
2023-02-01T10:39:01.557Z,1.38
2023-02-01T10:41:36.299Z,1.67
2023-02-01T10:44:07.508Z,1.15
2023-02-01T10:46:35.253Z,1.10
2023-02-01T10:49:04.220Z,1.30
2023-02-01T10:52:07.054Z,1.38
2023-02-01T10:54:39.376Z,1.05
2023-02-01T10:57:32.927Z,1.40
2023-02-01T11:00:20.177Z,1.35
2023-02-01T11:02:46.954Z,1.15
2023-02-01T11:05:16.600Z,1.50
2023-02-01T11:07:53.437Z,1.15
2023-02-01T11:10:46.818Z,1.40
2023-02-01T11:13:19.008Z,1.10
2023-02-01T11:15:47.839Z,1.27
2023-02-01T11:18:20.769Z,1.27
2023-02-01T11:20:53.073Z,1.50
2023-02-01T11:23:26.628Z,1.10
2023-02-01T11:25:58.013Z,1.33
2023-02-01T11:28:28.921Z,1.60
2023-02-01T11:31:00.292Z,1.60
2023-02-01T11:33:32.180Z,1.52
2023-02-01T11:38:33.962Z,1.67
2023-02-01T11:41:23.777Z,0.98
2023-02-01T11:44:01.518Z,1.05
2023-02-01T11:46:36.480Z,1.10
2023-02-01T11:49:15.570Z,1.13
2023-02-01T11:51:54.467Z,1.42
2023-02-01T11:54:32.970Z,1.45
2023-02-01T11:57:13.208Z,1.20
2023-02-01T12:00:01.392Z,1.48
2023-02-01T12:02:41.991Z,1.75
2023-02-01T12:05:33.583Z,1.10
2023-02-01T12:08:24.607Z,1.25
2023-02-01T12:11:11.395Z,1.55
2023-02-01T12:13:47.078Z,1.50
2023-02-01T12:16:36.240Z,2.03
2023-02-01T12:19:24.450Z,1.50
2023-02-01T12:22:17.381Z,1.20
2023-02-01T12:25:05.463Z,1.50
2023-02-01T12:27:56.266Z,1.20
2023-02-01T12:30:41.086Z,1.55
2023-02-01T12:33:34.020Z,1.38
2023-02-01T12:36:09.766Z,1.23
2023-02-01T12:38:51.424Z,1.20
2023-02-01T12:41:38.001Z,1.10
2023-02-01T12:44:20.754Z,0.90
2023-02-01T12:46:53.882Z,1.10
2023-02-01T12:49:26.379Z,1.00
2023-02-01T12:51:59.649Z,1.35
2023-02-01T12:54:33.596Z,1.40
2023-02-01T12:57:08.805Z,1.20
2023-02-01T12:59:50.842Z,0.90
2023-02-01T13:02:41.899Z,1.30
2023-02-01T13:05:22.663Z,1.48
2023-02-01T13:08:12.377Z,1.27
2023-02-01T13:10:42.921Z,1.58
2023-02-01T13:13:20.222Z,1.48
2023-02-01T13:16:01.995Z,1.10
2023-02-01T13:18:39.145Z,1.42
2023-02-01T13:21:05.989Z,1.10
2023-02-01T13:23:36.647Z,0.85
2023-02-01T13:26:03.572Z,1.02
2023-02-01T13:28:56.288Z,1.20
2023-02-01T13:31:41.359Z,0.90
2023-02-01T13:34:26.330Z,1.52
2023-02-01T13:37:19.687Z,1.55
2023-02-01T13:40:04.665Z,1.00
2023-02-01T13:42:36.444Z,1.15
2023-02-01T13:47:36.707Z,1.00
2023-02-01T13:50:19.123Z,0.90
2023-02-01T13:52:52.810Z,0.90
2023-02-01T13:55:22.347Z,1.52
2023-02-01T13:57:51.680Z,1.00
2023-02-01T14:00:38.468Z,1.35
2023-02-01T14:03:10.961Z,1.15
2023-02-01T14:05:48.359Z,1.00
2023-02-01T14:08:38.361Z,1.17
2023-02-01T14:11:06.304Z,0.90
2023-02-01T14:13:40.027Z,1.00
2023-02-01T14:16:10.163Z,0.98
2023-02-01T14:18:42.892Z,1.10
2023-02-01T14:21:24.689Z,1.05
2023-02-01T14:23:54.261Z,0.77
2023-02-01T14:26:27.528Z,0.75
2023-02-01T14:28:59.064Z,0.80
2023-02-01T14:31:51.985Z,0.85
2023-02-01T14:34:32.732Z,1.20
2023-02-01T14:37:03.571Z,1.30
2023-02-01T14:39:59.564Z,1.30
2023-02-01T14:42:45.137Z,0.95
2023-02-01T14:45:24.434Z,1.25
2023-02-01T14:47:52.903Z,1.20
2023-02-01T14:50:29.076Z,1.40
2023-02-01T14:53:22.944Z,1.38
2023-02-01T14:56:05.704Z,1.10
2023-02-01T14:58:42.731Z,1.08
2023-02-01T15:01:18.110Z,1.15
2023-02-01T15:04:11.914Z,1.20
2023-02-01T15:06:57.504Z,1.10
2023-02-01T15:09:35.275Z,1.05
2023-02-01T15:12:12.333Z,1.35
2023-02-01T15:14:41.045Z,1.17
2023-02-01T15:17:21.709Z,1.20
2023-02-01T15:19:59.901Z,1.13
2023-02-01T15:22:28.537Z,1.30
2023-02-01T15:24:57.358Z,1.08
2023-02-01T15:27:24.924Z,0.90
2023-02-01T15:29:51.831Z,1.17
2023-02-01T15:32:33.472Z,1.33
2023-02-01T15:35:04.190Z,0.98
2023-02-01T15:37:32.129Z,0.90
2023-02-01T15:40:27.595Z,1.00
2023-02-01T15:42:57.187Z,0.82
2023-02-01T15:45:27.737Z,1.15
2023-02-01T15:47:56.948Z,1.45
2023-02-01T15:50:26.128Z,0.80
2023-02-01T15:52:56.476Z,0.80
2023-02-01T15:55:37.225Z,1.25
2023-02-01T15:58:20.649Z,0.88
2023-02-01T16:00:51.226Z,1.15
2023-02-01T16:03:36.578Z,1.40
2023-02-01T16:06:28.057Z,1.00
2023-02-01T16:09:12.109Z,0.77
2023-02-01T16:11:57.219Z,0.90
2023-02-01T16:14:24.910Z,1.50
2023-02-01T16:16:52.792Z,1.00
2023-02-01T16:19:19.759Z,0.95
2023-02-01T16:21:46.888Z,0.85
2023-02-01T16:24:13.859Z,1.00
2023-02-01T16:26:40.542Z,0.90
2023-02-01T16:29:07.391Z,1.27
2023-02-01T16:31:38.870Z,1.38
2023-02-01T16:34:07.405Z,0.88
2023-02-01T16:36:36.642Z,1.00
2023-02-01T16:39:04.559Z,1.30
2023-02-01T16:41:31.189Z,0.95
2023-02-01T16:43:58.176Z,0.82
2023-02-01T16:46:27.654Z,0.68
2023-02-01T16:48:59.643Z,0.55
2023-02-01T16:51:30.493Z,1.00
2023-02-01T16:53:57.619Z,0.77
2023-02-01T16:56:31.973Z,0.80
2023-02-01T16:58:58.893Z,1.00
2023-02-01T17:01:25.899Z,1.08
2023-02-01T17:03:53.249Z,0.77
2023-02-01T17:06:25.183Z,0.82
2023-02-01T17:08:54.864Z,0.77
2023-02-01T17:11:21.918Z,1.10
2023-02-01T17:13:48.925Z,0.90
2023-02-01T17:16:18.666Z,1.52
2023-02-01T17:18:51.415Z,1.00
2023-02-01T17:21:18.001Z,0.80
2023-02-01T17:23:46.279Z,1.10
2023-02-01T17:26:13.027Z,0.60
2023-02-01T17:28:39.583Z,0.85
2023-02-01T17:31:06.431Z,0.95
2023-02-01T17:33:37.047Z,1.00
2023-02-01T17:36:06.970Z,0.85
2023-02-01T17:38:36.983Z,1.17
2023-02-01T17:41:04.201Z,0.80
2023-02-01T17:43:30.861Z,1.00
2023-02-01T17:46:11.117Z,0.63
2023-02-01T17:48:38.071Z,1.55
2023-02-01T17:51:07.536Z,0.90
2023-02-01T17:53:35.713Z,1.30
2023-02-01T17:56:02.368Z,1.30
2023-02-01T17:58:30.642Z,0.73
2023-02-01T18:00:57.746Z,0.85
2023-02-01T18:06:26.458Z,0.90
2023-02-01T18:08:54.255Z,1.00
2023-02-01T18:11:23.207Z,1.00
2023-02-01T18:13:52.946Z,1.30
2023-02-01T18:16:28.480Z,0.70
2023-02-01T18:18:57.671Z,0.93
2023-02-01T18:21:24.266Z,0.68
2023-02-01T18:23:50.824Z,0.68
2023-02-01T18:26:18.951Z,0.90
2023-02-01T18:28:45.670Z,0.75
2023-02-01T18:31:32.770Z,0.85
2023-02-01T18:34:00.480Z,0.60
2023-02-01T18:36:28.105Z,0.77
2023-02-01T18:38:57.542Z,0.63
2023-02-01T18:41:25.439Z,1.08
2023-02-01T18:43:52.987Z,1.10
2023-02-01T18:46:19.852Z,1.50
2023-02-01T18:48:46.481Z,0.90
2023-02-01T18:51:18.744Z,0.73
2023-02-01T18:53:45.490Z,1.42
2023-02-01T18:56:13.877Z,1.35
2023-02-01T18:58:40.947Z,0.82
2023-02-01T19:01:17.249Z,0.85
2023-02-01T19:03:53.620Z,1.05
2023-02-01T19:06:22.879Z,0.70
2023-02-01T19:08:51.229Z,1.00
2023-02-01T19:11:18.642Z,0.65
2023-02-01T19:13:45.158Z,1.30
2023-02-01T19:16:13.574Z,1.55
2023-02-01T19:18:40.882Z,1.15
2023-02-01T19:21:12.607Z,0.95
2023-02-01T19:26:11.420Z,1.70
2023-02-01T19:28:38.146Z,3.22
2023-02-01T19:31:07.150Z,2.67
2023-02-01T19:33:34.717Z,1.85
2023-02-01T19:36:05.734Z,1.45
2023-02-01T19:38:35.823Z,1.67
2023-02-01T19:41:02.448Z,1.55
2023-02-01T19:43:29.033Z,1.38
2023-02-01T19:45:56.011Z,1.05
2023-02-01T19:48:22.871Z,2.33
2023-02-01T19:50:49.877Z,1.58
2023-02-01T19:53:16.805Z,1.30
2023-02-01T19:55:47.005Z,1.42
2023-02-01T19:58:14.483Z,0.60
2023-02-01T20:00:43.306Z,0.90
2023-02-01T20:03:10.044Z,0.82
2023-02-01T20:05:36.824Z,1.27
2023-02-01T20:08:03.661Z,0.43
2023-02-01T20:10:30.419Z,0.82
2023-02-01T20:12:57.136Z,0.90
2023-02-01T20:15:26.945Z,1.02
2023-02-01T20:17:53.769Z,1.15
2023-02-01T20:20:20.427Z,1.48
2023-02-01T20:22:46.967Z,0.90
2023-02-01T20:25:13.645Z,0.90
2023-02-01T20:27:41.076Z,0.93
2023-02-01T20:30:08.653Z,1.27
2023-02-01T20:32:35.246Z,0.90
2023-02-01T20:35:01.768Z,1.23
2023-02-01T20:37:33.566Z,1.17
2023-02-01T20:42:26.556Z,0.50
2023-02-01T20:44:53.096Z,1.60
2023-02-01T20:47:19.854Z,0.77
2023-02-01T20:49:46.431Z,1.27
2023-02-01T20:52:12.993Z,0.80
2023-02-01T20:54:39.575Z,0.80
2023-02-01T20:57:06.515Z,0.80
2023-02-01T20:59:33.070Z,1.00
2023-02-01T21:01:59.716Z,0.98
2023-02-01T21:04:27.577Z,0.65
2023-02-01T21:06:55.531Z,1.33
2023-02-01T21:09:22.683Z,0.60
2023-02-01T21:11:49.292Z,0.55
2023-02-01T21:14:15.945Z,0.90
2023-02-01T21:16:42.572Z,0.80
2023-02-01T21:19:09.861Z,1.00
2023-02-01T21:21:36.532Z,0.82
2023-02-01T21:24:03.576Z,0.60
2023-02-01T21:26:40.949Z,0.55
2023-02-01T21:29:10.095Z,0.80
2023-02-01T21:31:37.043Z,0.95
2023-02-01T21:34:04.299Z,1.00
2023-02-01T21:36:36.635Z,2.55
2023-02-01T21:39:06.007Z,0.63
2023-02-01T21:41:53.252Z,1.33
2023-02-01T21:44:20.244Z,0.77
2023-02-01T21:46:47.225Z,0.82
2023-02-01T21:49:14.057Z,0.95
2023-02-01T21:51:41.882Z,0.88
2023-02-01T21:54:09.915Z,0.82
2023-02-01T21:56:37.631Z,0.77
2023-02-01T21:59:04.690Z,0.93
2023-02-01T22:01:31.499Z,1.25
2023-02-01T22:03:58.105Z,2.17
2023-02-01T22:06:31.938Z,1.20
2023-02-01T22:08:58.997Z,1.17
2023-02-01T22:11:26.365Z,0.82
2023-02-01T22:13:53.084Z,0.93
2023-02-01T22:16:21.485Z,1.10
2023-02-01T22:18:49.762Z,1.13
2023-02-01T22:21:16.681Z,1.10
2023-02-01T22:23:43.824Z,0.75
2023-02-01T22:26:12.810Z,0.88
2023-02-01T22:28:40.401Z,0.63
2023-02-01T22:31:09.323Z,0.98
2023-02-01T22:33:36.613Z,0.80
2023-02-01T22:36:15.409Z,0.55
2023-02-01T22:38:42.538Z,0.95
2023-02-01T22:41:09.428Z,1.20
2023-02-01T22:43:36.704Z,0.70
2023-02-01T22:46:06.077Z,0.93
2023-02-01T22:48:36.117Z,0.70
2023-02-01T22:51:04.063Z,0.47
2023-02-01T22:53:31.360Z,0.93
2023-02-01T22:56:06.553Z,0.63
2023-02-01T22:58:35.892Z,0.75
2023-02-01T23:01:13.413Z,0.45
2023-02-01T23:03:40.422Z,0.70
2023-02-01T23:06:11.475Z,0.73
2023-02-01T23:08:39.417Z,0.68
2023-02-01T23:11:10.144Z,0.63
2023-02-01T23:13:38.911Z,1.23
2023-02-01T23:16:10.727Z,1.08
2023-02-01T23:18:38.079Z,0.90
2023-02-01T23:21:07.924Z,0.80
2023-02-01T23:23:34.512Z,0.82
2023-02-01T23:26:01.821Z,1.02
2023-02-01T23:28:29.222Z,0.75
2023-02-01T23:30:55.966Z,0.70
2023-02-01T23:33:27.123Z,1.45
2023-02-01T23:35:55.571Z,0.50
2023-02-01T23:38:22.396Z,0.73
2023-02-01T23:40:51.053Z,0.70
2023-02-01T23:43:36.270Z,0.57
2023-02-01T23:46:03.144Z,1.42
2023-02-01T23:48:29.819Z,0.68
2023-02-01T23:50:56.424Z,0.57
2023-02-01T23:53:23.032Z,0.55
2023-02-01T23:55:53.960Z,0.47
2023-02-01T23:58:21.377Z,0.70
